Time;durP1;ratioP1;P1;durP2;ratioP2;P2;SDS_P1;SDS_P2;PMS_P1;PMS_P2;Temp;Humidity;BMP_temperature;BMP_pressure;BME280_temperature;BME280_humidity;BME280_pressure;Samples;Min_cycle;Max_cycle;Signal;HPM_P1;HPM_P2
2023/04/16 00:02:17;;;;;;;5.57;4.20;;;23.00;73.60;;;;;;6255341;27;89522;-82
2023/04/16 00:05:20;;;;;;;6.35;4.63;;;23.00;73.60;;;;;;6248122;27;89109;-83
2023/04/16 00:08:24;;;;;;;5.43;4.07;;;23.00;73.60;;;;;;6242623;27;87492;-82
2023/04/16 00:11:26;;;;;;;5.07;4.10;;;23.00;73.50;;;;;;6254880;28;89037;-83
2023/04/16 00:14:28;;;;;;;6.70;4.72;;;23.00;73.50;;;;;;6248192;28;89034;-82
2023/04/16 00:17:30;;;;;;;5.72;4.47;;;23.00;73.50;;;;;;6249470;28;90451;-82
2023/04/16 00:20:34;;;;;;;5.60;4.65;;;23.00;73.50;;;;;;6256069;27;89083;-83
2023/04/16 00:23:36;;;;;;;6.22;4.60;;;23.10;73.50;;;;;;6248862;28;89196;-82
2023/04/16 00:26:39;;;;;;;6.22;5.10;;;23.00;73.50;;;;;;6243644;28;87808;-82
2023/04/16 00:29:41;;;;;;;5.47;4.80;;;23.00;73.40;;;;;;6255038;28;89169;-83
2023/04/16 00:32:43;;;;;;;7.22;5.70;;;22.90;73.30;;;;;;6255912;28;89138;-83
2023/04/16 00:35:47;;;;;;;6.82;5.50;;;22.90;74.40;;;;;;6254054;28;89444;-83
2023/04/16 00:38:49;;;;;;;7.93;5.32;;;22.90;73.50;;;;;;6257516;28;88810;-82
2023/04/16 00:41:51;;;;;;;6.28;5.40;;;22.90;73.60;;;;;;6245157;28;89647;-82
2023/04/16 00:44:54;;;;;;;6.88;5.43;;;22.80;73.60;;;;;;6255995;28;88951;-83
2023/04/16 00:47:56;;;;;;;6.82;5.80;;;22.80;73.70;;;;;;6252295;28;90101;-82
2023/04/16 00:51:01;;;;;;;6.68;5.68;;;22.80;73.70;;;;;;6256444;27;89046;-80
2023/04/16 00:54:03;;;;;;;6.40;5.80;;;22.80;73.70;;;;;;6255155;28;89245;-82
2023/04/16 00:57:06;;;;;;;8.23;6.05;;;22.80;73.70;;;;;;6247315;28;89131;-83
2023/04/16 01:00:09;;;;;;;8.27;6.35;;;22.80;73.80;;;;;;6256685;28;89070;-83
2023/04/16 01:03:11;;;;;;;9.30;6.40;;;22.70;73.80;;;;;;6256477;28;89876;-82
2023/04/16 01:06:17;;;;;;;6.50;5.90;;;22.70;73.80;;;;;;6256456;28;87998;-82
2023/04/16 01:09:19;;;;;;;6.82;6.13;;;22.70;74.70;;;;;;6257004;28;89157;-83
2023/04/16 01:12:21;;;;;;;7.28;6.13;;;22.70;73.80;;;;;;6254960;28;89715;-82
2023/04/16 01:15:23;;;;;;;7.47;6.47;;;22.70;73.80;;;;;;6249254;28;89052;-79
2023/04/16 01:18:26;;;;;;;6.50;5.85;;;22.70;73.80;;;;;;6241090;28;90342;-82
2023/04/16 01:21:30;;;;;;;7.32;6.55;;;22.70;73.80;;;;;;6253680;28;89637;-82
2023/04/16 01:24:32;;;;;;;6.90;6.20;;;22.70;73.80;;;;;;6253448;28;89081;-82
2023/04/16 01:27:36;;;;;;;8.00;7.20;;;22.70;73.80;;;;;;6255138;28;89141;-82
2023/04/16 01:30:38;;;;;;;7.40;6.57;;;22.70;73.70;;;;;;6249276;28;89225;-82
2023/04/16 01:33:40;;;;;;;7.57;6.70;;;22.70;73.70;;;;;;6246918;28;89612;-82
2023/04/16 01:36:44;;;;;;;7.57;6.78;;;22.70;73.70;;;;;;6255366;28;89300;-83
2023/04/16 01:39:46;;;;;;;7.22;6.53;;;22.70;73.60;;;;;;6256538;28;88424;-83
2023/04/16 01:42:47;;;;;;;7.50;6.70;;;22.70;73.50;;;;;;6255855;28;89038;-83
2023/04/16 01:45:50;;;;;;;7.55;6.78;;;22.70;73.50;;;;;;6255526;28;89085;-82
2023/04/16 01:48:53;;;;;;;7.63;6.80;;;22.70;73.50;;;;;;6250853;28;90298;-83
2023/04/16 01:51:56;;;;;;;6.82;6.13;;;22.70;73.50;;;;;;6255378;28;89137;-82
2023/04/16 01:54:58;;;;;;;7.30;6.50;;;22.70;73.50;;;;;;6255800;28;89062;-83
2023/04/16 01:58:00;;;;;;;7.75;6.95;;;22.70;73.50;;;;;;6245575;28;89084;-82
2023/04/16 02:01:04;;;;;;;7.20;6.50;;;22.70;73.50;;;;;;6255780;28;87504;-83
2023/04/16 02:04:06;;;;;;;7.35;6.65;;;22.70;73.60;;;;;;6243718;28;89090;-82
2023/04/16 02:07:10;;;;;;;7.00;6.05;;;22.60;73.40;;;;;;6250293;28;89404;-81
2023/04/16 02:10:12;;;;;;;7.45;6.28;;;22.60;72.70;;;;;;6254354;28;88395;-80
2023/04/16 02:13:15;;;;;;;6.45;5.85;;;22.60;72.90;;;;;;6254634;28;89262;-82
2023/04/16 02:16:17;;;;;;;7.20;6.50;;;22.60;73.20;;;;;;6244297;28;89215;-82
2023/04/16 02:19:19;;;;;;;7.00;6.30;;;22.60;73.30;;;;;;6254488;28;90405;-82
2023/04/16 02:22:23;;;;;;;7.80;7.00;;;22.50;73.30;;;;;;6254111;28;89004;-82
2023/04/16 02:25:25;;;;;;;7.78;7.07;;;22.50;73.30;;;;;;6244824;28;89051;-81
2023/04/16 02:28:27;;;;;;;7.45;6.47;;;22.50;74.40;;;;;;6253615;28;89323;-82
2023/04/16 02:31:29;;;;;;;6.68;6.07;;;22.50;73.50;;;;;;6253174;28;89073;-83
2023/04/16 02:34:33;;;;;;;6.90;6.20;;;22.50;73.50;;;;;;6253538;27;88151;-82
2023/04/16 02:37:39;;;;;;;7.60;6.78;;;22.50;73.50;;;;;;6255294;28;89595;-83
2023/04/16 02:40:42;;;;;;;7.07;6.43;;;22.50;73.50;;;;;;6243228;28;88663;-82
2023/04/16 02:43:44;;;;;;;7.95;7.15;;;22.50;73.60;;;;;;6237512;28;88993;-83
2023/04/16 02:46:46;;;;;;;7.63;6.93;;;22.50;73.60;;;;;;6251733;28;90650;-82
2023/04/16 02:49:48;;;;;;;6.70;6.10;;;22.50;73.60;;;;;;6252508;28;89766;-83
2023/04/16 02:52:52;;;;;;;7.32;6.40;;;22.50;73.60;;;;;;6246934;28;88965;-83
2023/04/16 02:55:55;;;;;;;7.72;6.38;;;22.50;73.50;;;;;;6252170;28;89074;-82
2023/04/16 02:58:57;;;;;;;7.50;6.70;;;22.50;73.50;;;;;;6244191;28;89079;-83
2023/04/16 03:01:59;;;;;;;7.43;6.65;;;22.50;73.50;;;;;;6253415;28;89074;-82
2023/04/16 03:05:01;;;;;;;7.30;6.32;;;22.50;73.40;;;;;;6256072;28;89164;-83
2023/04/16 03:08:05;;;;;;;7.07;6.38;;;22.50;73.40;;;;;;6256234;28;90022;-83
2023/04/16 03:11:07;;;;;;;6.95;6.28;;;22.50;73.30;;;;;;6255356;28;87606;-82
2023/04/16 03:14:09;;;;;;;7.00;6.30;;;22.50;73.30;;;;;;6245187;28;89382;-83
2023/04/16 03:17:11;;;;;;;7.22;6.53;;;22.50;73.30;;;;;;6239460;28;89014;-81
2023/04/16 03:20:15;;;;;;;6.90;6.20;;;22.50;73.30;;;;;;6253130;28;90319;-81
2023/04/16 03:23:19;;;;;;;6.60;6.00;;;22.50;73.30;;;;;;6253568;28;89151;-81
2023/04/16 03:26:21;;;;;;;6.95;6.35;;;22.50;73.30;;;;;;6245611;28;89406;-82
2023/04/16 03:29:23;;;;;;;7.13;6.43;;;22.50;73.30;;;;;;6251758;28;89032;-82
2023/04/16 03:32:25;;;;;;;6.60;5.90;;;22.40;73.30;;;;;;6254086;28;89121;-82
2023/04/16 03:35:27;;;;;;;6.32;5.72;;;22.40;73.30;;;;;;6255596;27;89207;-82
2023/04/16 03:38:30;;;;;;;6.50;5.90;;;22.40;73.20;;;;;;6256859;28;89019;-83
2023/04/16 03:41:33;;;;;;;6.32;5.72;;;22.40;73.30;;;;;;6253622;28;88319;-83
2023/04/16 03:44:35;;;;;;;6.78;6.07;;;22.40;73.20;;;;;;6257059;28;89146;-83
2023/04/16 03:47:37;;;;;;;7.60;5.82;;;22.40;73.20;;;;;;6242741;28;89111;-82
2023/04/16 03:50:39;;;;;;;6.53;5.93;;;22.40;73.20;;;;;;6243504;28;90040;-82
2023/04/16 03:53:42;;;;;;;6.10;5.50;;;22.40;73.20;;;;;;6243824;28;89302;-83
2023/04/16 03:56:44;;;;;;;6.22;5.63;;;22.50;73.30;;;;;;6258488;28;89392;-83
2023/04/16 03:59:46;;;;;;;6.88;5.72;;;22.40;73.20;;;;;;6256380;28;89287;-82
2023/04/16 04:02:48;;;;;;;5.95;5.40;;;22.40;73.10;;;;;;6256555;28;89065;-82
2023/04/16 04:05:50;;;;;;;6.30;5.70;;;22.50;73.20;;;;;;6258117;28;88899;-83
2023/04/16 04:08:54;;;;;;;6.13;5.53;;;22.50;73.20;;;;;;6257318;28;87907;-83
2023/04/16 04:11:56;;;;;;;6.65;6.05;;;22.50;73.20;;;;;;6257699;28;88449;-83
2023/04/16 04:14:58;;;;;;;6.28;5.68;;;22.50;73.20;;;;;;6248959;28;89160;-83
2023/04/16 04:18:00;;;;;;;5.57;5.07;;;22.50;73.20;;;;;;6258215;28;89067;-82
2023/04/16 04:21:06;;;;;;;6.80;5.32;;;22.50;73.10;;;;;;6252713;28;89993;-83
2023/04/16 04:24:09;;;;;;;5.90;5.30;;;22.50;73.10;;;;;;6258065;28;89047;-78
2023/04/16 04:27:11;;;;;;;5.95;5.35;;;22.50;73.10;;;;;;6245092;27;89074;-83
2023/04/16 04:30:13;;;;;;;5.57;5.07;;;22.50;73.10;;;;;;6256330;28;89191;-82
2023/04/16 04:33:16;;;;;;;6.15;5.40;;;22.50;73.10;;;;;;6257245;27;89140;-82
2023/04/16 04:36:18;;;;;;;6.05;5.45;;;22.50;73.00;;;;;;6257249;28;88317;-82
2023/04/16 04:39:22;;;;;;;5.70;5.20;;;22.60;73.10;;;;;;6257579;28;89366;-81
2023/04/16 04:42:25;;;;;;;5.70;5.20;;;22.50;73.00;;;;;;6247172;28;87233;-82
2023/04/16 04:45:27;;;;;;;5.43;4.95;;;22.50;73.00;;;;;;6257091;28;89119;-82
2023/04/16 04:48:29;;;;;;;5.47;4.97;;;22.50;73.00;;;;;;6246573;28;89557;-82
2023/04/16 04:51:31;;;;;;;5.53;5.03;;;22.60;73.00;;;;;;6249049;28;89179;-82
2023/04/16 04:54:34;;;;;;;5.20;4.70;;;22.60;73.00;;;;;;6257485;28;89027;-82
2023/04/16 04:57:36;;;;;;;5.50;5.00;;;22.60;73.50;;;;;;6258089;28;87242;-80
2023/04/16 05:00:38;;;;;;;5.30;4.80;;;22.60;72.90;;;;;;6257297;28;89462;-81
2023/04/16 05:03:40;;;;;;;5.40;4.90;;;22.60;72.80;;;;;;6254925;28;89432;-82
2023/04/16 05:06:42;;;;;;;5.22;4.72;;;22.60;72.80;;;;;;6256925;28;89319;-83
2023/04/16 05:09:46;;;;;;;5.47;4.97;;;22.60;72.80;;;;;;6256661;28;88138;-82
2023/04/16 05:12:48;;;;;;;5.50;4.57;;;22.60;72.80;;;;;;6256995;28;88259;-82
2023/04/16 05:15:51;;;;;;;4.88;4.47;;;22.60;72.80;;;;;;6254858;28;89362;-82
2023/04/16 05:18:54;;;;;;;6.68;4.90;;;22.60;72.80;;;;;;6249085;28;88011;-83
2023/04/16 05:21:56;;;;;;;5.80;4.60;;;22.60;72.70;;;;;;6252038;28;89237;-83
2023/04/16 05:25:00;;;;;;;4.75;4.13;;;22.60;72.80;;;;;;6255047;28;89353;-83
2023/04/16 05:28:02;;;;;;;5.80;4.25;;;22.60;72.70;;;;;;6256051;28;88959;-82
2023/04/16 05:31:04;;;;;;;5.15;4.70;;;22.60;72.70;;;;;;6256253;28;89085;-82
2023/04/16 05:34:06;;;;;;;5.47;4.97;;;22.70;72.80;;;;;;6255232;28;89136;-80
2023/04/16 05:37:08;;;;;;;4.80;4.40;;;22.70;73.70;;;;;;6256553;28;89088;-81
2023/04/16 05:40:13;;;;;;;6.05;4.60;;;22.70;73.60;;;;;;6253988;28;89058;-81
2023/04/16 05:43:15;;;;;;;4.47;4.07;;;22.70;73.30;;;;;;6253911;28;88287;-81
2023/04/16 05:46:17;;;;;;;4.65;4.25;;;22.70;73.20;;;;;;6256207;28;89505;-81
2023/04/16 05:49:20;;;;;;;4.50;4.10;;;22.70;73.20;;;;;;6243492;28;89125;-78
2023/04/16 05:52:22;;;;;;;4.72;4.32;;;22.70;73.10;;;;;;6250395;28;89250;-77
2023/04/16 05:55:25;;;;;;;4.60;4.20;;;22.80;73.00;;;;;;6255257;28;89089;-79
2023/04/16 05:58:27;;;;;;;4.38;4.00;;;22.70;73.00;;;;;;6255412;28;89033;-78
2023/04/16 06:01:29;;;;;;;4.05;3.75;;;22.70;72.90;;;;;;6246402;28;89422;-78
2023/04/16 06:04:31;;;;;;;4.80;3.85;;;22.80;73.00;;;;;;6255518;28;89139;-79
2023/04/16 06:07:33;;;;;;;5.43;3.97;;;22.80;73.00;;;;;;6255663;28;89253;-78
2023/04/16 06:10:37;;;;;;;4.30;3.90;;;22.80;72.90;;;;;;6255064;28;90484;-78
2023/04/16 06:13:39;;;;;;;4.50;4.05;;;22.80;72.90;;;;;;6253598;28;88364;-77
2023/04/16 06:16:41;;;;;;;4.30;3.78;;;22.80;73.00;;;;;;6256120;28;89116;-78
2023/04/16 06:19:43;;;;;;;4.47;4.07;;;22.80;72.90;;;;;;6254401;28;89041;-79
2023/04/16 06:22:45;;;;;;;3.97;3.58;;;22.80;72.80;;;;;;6254250;28;90017;-78
2023/04/16 06:25:49;;;;;;;4.30;3.65;;;22.80;72.80;;;;;;6247983;28;89445;-78
2023/04/16 06:28:51;;;;;;;5.80;3.78;;;22.80;72.80;;;;;;6255100;28;89155;-77
2023/04/16 06:31:53;;;;;;;3.70;3.38;;;22.80;72.80;;;;;;6255590;28;88028;-78
2023/04/16 06:34:55;;;;;;;3.67;3.33;;;22.80;72.70;;;;;;6254542;28;89014;-79
2023/04/16 06:37:57;;;;;;;3.80;3.50;;;22.80;72.60;;;;;;6254266;28;89209;-78
2023/04/16 06:41:00;;;;;;;3.88;3.50;;;22.80;72.50;;;;;;6254516;28;89652;-78
2023/04/16 06:44:02;;;;;;;5.28;3.78;;;22.80;72.50;;;;;;6254871;28;88442;-79
2023/04/16 06:47:05;;;;;;;3.58;3.28;;;22.80;72.50;;;;;;6254129;28;88988;-78
2023/04/16 06:50:07;;;;;;;3.88;3.40;;;22.80;72.50;;;;;;6241859;28;89023;-78
2023/04/16 06:53:09;;;;;;;4.38;3.45;;;22.80;72.50;;;;;;6252436;28;90011;-77
2023/04/16 06:56:13;;;;;;;3.55;3.17;;;22.80;72.50;;;;;;6255396;28;89073;-78
2023/04/16 06:59:15;;;;;;;3.78;3.47;;;22.80;72.50;;;;;;6255131;28;89170;-78
2023/04/16 07:02:17;;;;;;;3.47;3.17;;;22.80;72.50;;;;;;6253646;28;89356;-78
2023/04/16 07:05:20;;;;;;;3.00;2.80;;;22.90;72.50;;;;;;6254559;28;89079;-78
2023/04/16 07:08:23;;;;;;;4.32;3.15;;;22.80;72.40;;;;;;6254837;27;88998;-78
2023/04/16 07:11:27;;;;;;;3.92;3.20;;;22.80;72.40;;;;;;6258826;28;89069;-78
2023/04/16 07:14:29;;;;;;;3.40;3.10;;;22.80;72.40;;;;;;6259237;28;88214;-77
2023/04/16 07:17:31;;;;;;;3.92;3.50;;;22.80;72.50;;;;;;6259151;28;89676;-77
2023/04/16 07:20:33;;;;;;;3.50;3.20;;;22.80;72.40;;;;;;6246289;28;89222;-79
2023/04/16 07:23:35;;;;;;;3.30;2.92;;;22.80;72.30;;;;;;6258205;28;90370;-77
2023/04/16 07:26:38;;;;;;;3.40;3.10;;;22.80;72.30;;;;;;6250029;28;88041;-78
2023/04/16 07:29:40;;;;;;;3.40;3.10;;;22.80;72.30;;;;;;6254477;28;89132;-76
2023/04/16 07:32:43;;;;;;;3.42;2.92;;;22.90;72.30;;;;;;6249156;28;89024;-78
2023/04/16 07:35:45;;;;;;;3.30;3.00;;;22.90;72.30;;;;;;6245393;28;88047;-77
2023/04/16 07:38:47;;;;;;;3.28;2.97;;;22.80;72.30;;;;;;6257039;28;89089;-77
2023/04/16 07:41:50;;;;;;;3.08;2.78;;;22.90;72.30;;;;;;6246182;28;89042;-78
2023/04/16 07:44:52;;;;;;;4.03;3.42;;;22.80;72.20;;;;;;6259320;28;88434;-78
2023/04/16 07:47:55;;;;;;;3.25;2.90;;;22.90;72.20;;;;;;6253966;28;89192;-78
2023/04/16 07:50:57;;;;;;;3.67;3.33;;;22.90;72.20;;;;;;6239496;28;89691;-77
2023/04/16 07:54:00;;;;;;;3.42;3.00;;;22.90;72.20;;;;;;6257717;28;90385;-77
2023/04/16 07:57:03;;;;;;;3.55;3.25;;;22.90;72.20;;;;;;6257573;28;89476;-78
2023/04/16 08:00:07;;;;;;;3.45;3.15;;;22.90;72.20;;;;;;6256015;28;89127;-78
2023/04/16 08:03:09;;;;;;;3.63;3.20;;;22.90;72.20;;;;;;6256989;28;88981;-78
2023/04/16 08:06:11;;;;;;;3.42;3.13;;;22.90;72.10;;;;;;6248688;28;87868;-78
2023/04/16 08:09:13;;;;;;;3.75;3.45;;;22.90;72.10;;;;;;6258111;28;88298;-78
2023/04/16 08:12:16;;;;;;;3.60;3.30;;;22.90;72.20;;;;;;6258426;28;88995;-78
2023/04/16 08:15:18;;;;;;;3.88;3.55;;;22.90;72.10;;;;;;6257735;28;88230;-77
2023/04/16 08:18:20;;;;;;;3.60;3.30;;;22.90;72.10;;;;;;6256646;28;89108;-78
2023/04/16 08:21:22;;;;;;;4.07;3.67;;;22.90;72.10;;;;;;6243906;28;89356;-78
2023/04/16 08:24:25;;;;;;;4.00;3.60;;;22.90;72.10;;;;;;6255318;28;90041;-78
2023/04/16 08:27:28;;;;;;;3.97;3.60;;;22.90;72.10;;;;;;6250114;28;89403;-78
2023/04/16 08:30:30;;;;;;;4.20;3.80;;;22.90;72.10;;;;;;6257051;28;89324;-75
2023/04/16 08:33:32;;;;;;;3.90;3.60;;;22.90;72.20;;;;;;6257599;28;89503;-78
2023/04/16 08:36:34;;;;;;;3.70;3.35;;;22.90;72.10;;;;;;6255720;28;89024;-77
2023/04/16 08:39:36;;;;;;;3.97;3.58;;;22.90;72.00;;;;;;6251206;28;88276;-77
2023/04/16 08:42:44;;;;;;;4.68;3.53;;;22.90;72.10;;;;;;6246995;28;89492;-77
2023/04/16 08:45:48;;;;;;;4.07;3.72;;;22.90;72.10;;;;;;6255178;28;87617;-77
2023/04/16 08:48:54;;;;;;;3.75;3.45;;;22.90;72.00;;;;;;6234685;28;89401;-77
2023/04/16 08:51:57;;;;;;;4.38;3.97;;;22.90;72.10;;;;;;6253543;28;89361;-78
2023/04/16 08:55:04;;;;;;;3.90;3.60;;;22.90;72.00;;;;;;6254719;28;90020;-77
2023/04/16 08:58:13;;;;;;;4.30;3.90;;;22.90;72.00;;;;;;6256119;28;89624;-77
2023/04/16 09:01:16;;;;;;;4.32;3.65;;;22.90;72.00;;;;;;6256877;28;89640;-78
2023/04/16 09:04:21;;;;;;;4.30;3.90;;;22.90;72.00;;;;;;6255926;28;89112;-78
2023/04/16 09:07:25;;;;;;;4.07;3.78;;;22.90;71.90;;;;;;6256446;28;89060;-78
2023/04/16 09:10:28;;;;;;;4.25;3.85;;;22.90;71.90;;;;;;6257121;28;89063;-78
2023/04/16 09:13:32;;;;;;;4.22;3.83;;;22.90;71.90;;;;;;6256286;28;88309;-77
2023/04/16 09:16:35;;;;;;;4.32;3.90;;;23.00;72.00;;;;;;6256269;28;87524;-77
2023/04/16 09:19:37;;;;;;;4.15;3.65;;;23.00;72.00;;;;;;6254912;28;89333;-78
2023/04/16 09:22:40;;;;;;;4.10;3.70;;;22.90;71.80;;;;;;6254206;28;89355;-77
2023/04/16 09:25:42;;;;;;;4.05;3.70;;;22.90;71.80;;;;;;6255846;28;89882;-78
2023/04/16 09:28:46;;;;;;;3.88;3.58;;;22.90;71.80;;;;;;6255329;28;89250;-77
2023/04/16 09:32:02;;;;;;;4.38;3.97;;;22.90;71.80;;;;;;6255159;27;89122;-78
2023/04/16 09:35:04;;;;;;;4.20;3.80;;;23.00;71.90;;;;;;6255903;28;87790;-77
2023/04/16 09:38:06;;;;;;;3.90;3.50;;;23.00;71.80;;;;;;6256168;28;89497;-77
2023/04/16 09:41:08;;;;;;;4.05;3.72;;;23.00;71.80;;;;;;6239950;28;89020;-77
2023/04/16 09:44:12;;;;;;;4.65;3.90;;;23.00;71.80;;;;;;6256200;28;87952;-77
2023/04/16 09:47:14;;;;;;;4.32;3.92;;;22.90;71.80;;;;;;6256816;27;87384;-78
2023/04/16 09:50:18;;;;;;;3.88;3.58;;;23.00;71.80;;;;;;6241809;28;89001;-77
2023/04/16 09:53:24;;;;;;;4.43;4.03;;;22.90;71.80;;;;;;6255028;28;89048;-79
2023/04/16 09:56:27;;;;;;;4.40;4.00;;;22.90;71.80;;;;;;6253414;28;90369;-76
2023/04/16 09:59:33;;;;;;;4.30;3.60;;;22.90;71.80;;;;;;6247660;28;89076;-76
2023/04/16 10:02:37;;;;;;;4.00;3.70;;;23.00;71.90;;;;;;6250735;28;89099;-77
2023/04/16 10:05:39;;;;;;;4.00;3.65;;;23.00;71.80;;;;;;6255989;28;88933;-76
2023/04/16 10:08:43;;;;;;;3.95;3.58;;;23.00;71.80;;;;;;6251847;28;89161;-77
2023/04/16 10:11:46;;;;;;;4.30;3.90;;;23.00;71.80;;;;;;6246209;28;89056;-77
2023/04/16 10:14:49;;;;;;;4.05;3.65;;;23.00;71.80;;;;;;6255552;28;89041;-76
2023/04/16 10:17:52;;;;;;;4.18;3.65;;;23.00;71.80;;;;;;6255132;27;88300;-77
2023/04/16 10:20:55;;;;;;;4.30;3.90;;;23.00;71.80;;;;;;6254514;28;89165;-77
2023/04/16 10:23:57;;;;;;;3.85;3.55;;;22.90;71.80;;;;;;6255404;28;89101;-77
2023/04/16 10:26:59;;;;;;;4.10;3.70;;;22.90;71.80;;;;;;6254597;28;89995;-78
2023/04/16 10:30:03;;;;;;;3.78;3.47;;;22.90;71.80;;;;;;6254106;28;89431;-76
2023/04/16 10:33:06;;;;;;;4.20;3.80;;;22.90;71.80;;;;;;6255199;28;89155;-77
2023/04/16 10:36:10;;;;;;;4.00;3.60;;;22.90;71.70;;;;;;6254024;28;88009;-77
2023/04/16 10:39:13;;;;;;;4.18;3.60;;;23.00;71.80;;;;;;6253479;28;89045;-77
2023/04/16 10:42:15;;;;;;;3.90;3.60;;;23.00;71.70;;;;;;6244704;28;89237;-77
2023/04/16 10:45:20;;;;;;;4.25;3.85;;;22.90;71.60;;;;;;6258469;27;89120;-77
2023/04/16 10:48:24;;;;;;;4.60;4.20;;;23.00;71.80;;;;;;6238303;28;88314;-77
2023/04/16 10:51:30;;;;;;;4.07;3.67;;;23.00;71.80;;;;;;6253491;28;89045;-77
2023/04/16 10:54:34;;;;;;;4.07;3.67;;;23.00;71.70;;;;;;6252087;28;89251;-76
2023/04/16 10:57:37;;;;;;;4.03;3.65;;;23.00;71.80;;;;;;6252528;28;90011;-77
2023/04/16 11:00:51;;;;;;;3.97;3.67;;;23.00;71.70;;;;;;6257936;28;89141;-77
2023/04/16 11:03:53;;;;;;;3.97;3.67;;;23.00;71.80;;;;;;6246925;28;88954;-78
2023/04/16 11:07:03;;;;;;;3.97;3.67;;;23.00;71.70;;;;;;6259533;28;89065;-78
2023/04/16 11:10:06;;;;;;;4.03;3.67;;;22.90;71.60;;;;;;6257043;28;90068;-77
2023/04/16 11:13:09;;;;;;;3.90;3.60;;;23.00;71.70;;;;;;6244865;28;89486;-77
2023/04/16 11:16:14;;;;;;;4.00;3.60;;;23.00;71.60;;;;;;6259213;28;89320;-77
2023/04/16 11:19:17;;;;;;;3.85;3.55;;;23.00;71.60;;;;;;6259273;28;90987;-78
2023/04/16 11:22:19;;;;;;;3.70;3.40;;;23.00;71.70;;;;;;6257368;28;89367;-77
2023/04/16 11:25:22;;;;;;;4.55;3.85;;;23.00;71.70;;;;;;6259162;28;88533;-78
2023/04/16 11:28:33;;;;;;;4.68;4.00;;;23.00;71.70;;;;;;6257818;28;90011;-78
2023/04/16 11:31:37;;;;;;;5.70;4.40;;;23.00;71.70;;;;;;6258424;28;89073;-77
2023/04/16 11:34:45;;;;;;;6.88;5.20;;;23.00;71.70;;;;;;6258026;28;88115;-78
2023/04/16 11:37:48;;;;;;;8.38;5.65;;;22.90;71.60;;;;;;6257434;28;89346;-75
2023/04/16 11:40:52;;;;;;;9.00;6.28;;;22.90;71.60;;;;;;6244485;28;89125;-77
2023/04/16 11:43:54;;;;;;;11.27;7.88;;;22.90;71.60;;;;;;6258294;27;89056;-78
2023/04/16 11:46:58;;;;;;;14.60;9.13;;;23.00;71.60;;;;;;6258747;28;89147;-77
2023/04/16 11:50:19;;;;;;;15.23;9.60;;;22.90;71.60;;;;;;6245431;28;88362;-78
2023/04/16 11:53:21;;;;;;;20.95;12.38;;;23.00;71.60;;;;;;6252127;28;89400;-77
2023/04/16 11:56:28;;;;;;;21.10;13.15;;;22.90;71.50;;;;;;6256992;27;87985;-77
2023/04/16 11:59:30;;;;;;;25.55;14.75;;;23.00;71.60;;;;;;6257267;28;89649;-77
2023/04/16 12:02:40;;;;;;;33.10;17.35;;;22.90;71.50;;;;;;6253020;28;89397;-77
2023/04/16 12:05:43;;;;;;;36.22;20.10;;;22.90;71.60;;;;;;6253724;28;88705;-75
2023/04/16 12:08:45;;;;;;;37.97;21.20;;;22.90;71.80;;;;;;6254352;28;89154;-77
2023/04/16 12:11:47;;;;;;;63.05;37.33;;;22.90;71.80;;;;;;6254357;28;89107;-79
2023/04/16 12:14:50;;;;;;;49.90;27.40;;;22.90;76.50;;;;;;6255925;28;89020;-77
2023/04/16 12:18:06;;;;;;;43.78;25.13;;;23.00;85.10;;;;;;6256679;28;89361;-80
2023/04/16 12:21:08;;;;;;;45.92;24.35;;;23.00;79.30;;;;;;6260961;28;88759;-77
2023/04/16 12:24:13;;;;;;;51.80;26.42;;;23.00;75.40;;;;;;6246088;27;89075;-81
2023/04/16 12:27:15;;;;;;;46.30;25.75;;;23.00;74.30;;;;;;6248656;27;89020;-79
2023/04/16 12:30:17;;;;;;;49.35;26.42;;;23.00;73.70;;;;;;6252873;27;90353;-79
2023/04/16 12:33:21;;;;;;;51.13;27.48;;;23.00;73.40;;;;;;6252495;27;89179;-80
2023/04/16 12:36:23;;;;;;;54.78;27.02;;;23.00;73.20;;;;;;6248407;27;89176;-77
2023/04/16 12:39:25;;;;;;;52.92;28.13;;;23.00;73.20;;;;;;6244516;27;89042;-75
2023/04/16 12:42:33;;;;;;;52.60;27.80;;;23.00;73.30;;;;;;6240303;27;89168;-78
2023/04/16 12:45:35;;;;;;;55.53;29.92;;;23.00;73.30;;;;;;6242168;27;89374;-80
2023/04/16 12:48:40;;;;;;;56.30;30.33;;;23.00;73.30;;;;;;6245908;27;89109;-78
2023/04/16 12:51:42;;;;;;;55.88;30.92;;;23.00;73.40;;;;;;6252562;27;88490;-80
2023/04/16 12:54:44;;;;;;;54.20;30.10;;;23.00;73.40;;;;;;6235528;28;89134;-78
2023/04/16 12:57:47;;;;;;;56.72;30.73;;;23.00;73.50;;;;;;6244814;28;87948;-78
2023/04/16 13:00:49;;;;;;;61.28;31.02;;;23.00;73.50;;;;;;6254343;28;89854;-76
2023/04/16 13:03:53;;;;;;;54.20;30.52;;;23.00;73.50;;;;;;6256370;28;91091;-79
2023/04/16 13:06:55;;;;;;;60.83;32.20;;;23.00;73.50;;;;;;6246984;28;88011;-73
2023/04/16 13:09:57;;;;;;;55.97;32.25;;;23.00;73.60;;;;;;6251784;27;89107;-73
2023/04/16 13:12:59;;;;;;;59.40;32.08;;;23.00;73.60;;;;;;6250744;28;89080;-71
2023/04/16 13:16:05;;;;;;;56.75;31.75;;;23.00;73.60;;;;;;6242249;28;89097;-70
2023/04/16 13:19:08;;;;;;;60.10;32.47;;;23.00;73.60;;;;;;6250412;28;89296;-70
2023/04/16 13:22:10;;;;;;;57.60;32.33;;;23.00;73.50;;;;;;6244747;28;88590;-72
2023/04/16 13:25:12;;;;;;;58.53;32.00;;;23.00;73.50;;;;;;6252226;28;89058;-71
2023/04/16 13:28:15;;;;;;;58.13;31.67;;;23.00;73.40;;;;;;6252482;28;89019;-72
2023/04/16 13:31:19;;;;;;;59.45;31.08;;;23.00;73.30;;;;;;6252368;28;88908;-72
2023/04/16 13:34:23;;;;;;;55.03;31.95;;;23.00;73.30;;;;;;6252271;28;87973;-73
2023/04/16 13:37:25;;;;;;;58.88;30.95;;;23.00;73.30;;;;;;6251979;28;89384;-73
2023/04/16 13:40:27;;;;;;;57.28;31.70;;;23.00;73.30;;;;;;6250105;28;88990;-73
2023/04/16 13:43:29;;;;;;;57.10;32.20;;;23.00;73.30;;;;;;6251925;28;89168;-75
2023/04/16 13:46:31;;;;;;;54.30;31.20;;;23.00;73.20;;;;;;6242596;28;89514;-71
2023/04/16 13:49:35;;;;;;;57.35;31.10;;;23.00;73.20;;;;;;6240728;28;89121;-72
2023/04/16 13:52:37;;;;;;;58.42;31.40;;;23.10;73.20;;;;;;6248901;28;88416;-71
2023/04/16 13:55:41;;;;;;;55.45;31.30;;;23.10;73.10;;;;;;6249940;28;89223;-72
2023/04/16 13:58:43;;;;;;;52.17;30.70;;;23.10;73.00;;;;;;6252254;28;89032;-73
2023/04/16 14:01:46;;;;;;;56.17;30.75;;;23.10;73.00;;;;;;6238146;28;90057;-72
2023/04/16 14:04:49;;;;;;;54.42;29.85;;;23.10;73.00;;;;;;6251514;28;89102;-72
2023/04/16 14:07:51;;;;;;;52.75;29.85;;;23.10;73.00;;;;;;6252192;28;89428;-72
2023/04/16 14:10:54;;;;;;;54.05;30.30;;;23.10;73.00;;;;;;6250463;28;89013;-72
2023/04/16 14:13:56;;;;;;;51.47;30.02;;;23.10;73.00;;;;;;6240575;28;88365;-73
2023/04/16 14:16:58;;;;;;;52.17;29.33;;;23.10;73.00;;;;;;6251794;28;89055;-73
2023/04/16 14:20:02;;;;;;;51.00;29.25;;;23.10;73.00;;;;;;6250672;28;89050;-73
2023/04/16 14:23:05;;;;;;;54.35;29.48;;;23.10;72.90;;;;;;6250732;28;88344;-73
2023/04/16 14:26:07;;;;;;;52.13;29.08;;;23.10;72.90;;;;;;6246597;27;89212;-72
2023/04/16 14:29:09;;;;;;;50.75;29.02;;;23.10;72.90;;;;;;6244418;27;89390;-73
2023/04/16 14:32:12;;;;;;;49.95;28.08;;;23.10;72.90;;;;;;6246708;28;89285;-72
2023/04/16 14:35:16;;;;;;;49.40;28.85;;;23.10;72.80;;;;;;6251674;28;90675;-72
2023/04/16 14:38:18;;;;;;;48.13;27.58;;;23.00;72.70;;;;;;6251614;28;89002;-71
2023/04/16 14:41:20;;;;;;;45.90;27.17;;;23.10;72.80;;;;;;6237246;28;89030;-71
2023/04/16 14:44:22;;;;;;;46.75;27.25;;;23.10;72.80;;;;;;6251452;28;89137;-72
2023/04/16 14:47:24;;;;;;;44.53;26.98;;;23.10;72.70;;;;;;6247758;28;89577;-72
2023/04/16 14:50:28;;;;;;;47.38;27.88;;;23.10;72.80;;;;;;6236786;28;89392;-74
2023/04/16 14:53:31;;;;;;;44.72;27.83;;;23.10;72.80;;;;;;6252054;28;88229;-74
2023/04/16 14:56:33;;;;;;;44.47;26.50;;;23.10;72.80;;;;;;6250822;28;89441;-73
2023/04/16 14:59:35;;;;;;;42.45;26.25;;;23.10;72.80;;;;;;6250700;28;89141;-72
2023/04/16 15:02:38;;;;;;;41.65;26.05;;;23.10;72.80;;;;;;6249392;28;90291;-72
2023/04/16 15:05:42;;;;;;;43.78;26.27;;;23.10;72.80;;;;;;6250540;28;89103;-73
2023/04/16 15:08:44;;;;;;;40.67;25.40;;;23.10;73.70;;;;;;6251631;27;89580;-73
2023/04/16 15:11:46;;;;;;;44.35;25.20;;;23.10;72.80;;;;;;6241228;27;89039;-74
2023/04/16 15:14:48;;;;;;;42.03;25.55;;;23.10;73.80;;;;;;6246795;27;89079;-78
2023/04/16 15:17:50;;;;;;;39.65;24.77;;;23.10;73.00;;;;;;6249478;28;89445;-76
2023/04/16 15:20:55;;;;;;;43.72;24.73;;;23.10;73.00;;;;;;6244985;28;89486;-73
2023/04/16 15:23:58;;;;;;;42.45;23.83;;;23.10;73.20;;;;;;6250283;28;87293;-71
2023/04/16 15:27:01;;;;;;;38.42;24.30;;;23.10;73.20;;;;;;6240273;28;88356;-78
2023/04/16 15:30:03;;;;;;;41.45;24.10;;;23.10;73.30;;;;;;6248336;27;89481;-75
2023/04/16 15:33:06;;;;;;;41.90;25.08;;;23.10;73.50;;;;;;6251665;28;90083;-70
2023/04/16 15:36:10;;;;;;;54.85;32.92;;;23.10;74.70;;;;;;6258119;28;87841;-74
2023/04/16 15:39:12;;;;;;;45.42;25.88;;;23.10;88.10;;;;;;6257085;28;89108;-72
2023/04/16 15:42:15;;;;;;;37.28;23.90;;;23.20;83.20;;;;;;6254987;28;89272;-79
2023/04/16 15:45:18;;;;;;;39.10;23.00;;;23.20;80.20;;;;;;6255621;28;88030;-77